Time;durP1;ratioP1;P1;durP2;ratioP2;P2;SDS_P1;SDS_P2;PMS_P1;PMS_P2;Temp;Humidity;BMP_temperature;BMP_pressure;BME280_temperature;BME280_humidity;BME280_pressure;Samples;Min_cycle;Max_cycle;Signal;HPM_P1;HPM_P2
2022/08/18 00:01:11;;;;;;;3.50;1.60;;;23.20;54.70;;;;;;2261988;56;20984;-71
2022/08/18 00:03:37;;;;;;;2.78;1.75;;;23.20;54.70;;;;;;2428188;55;20985;-71
2022/08/18 00:06:04;;;;;;;3.42;1.98;;;23.10;54.70;;;;;;2488781;55;21001;-70
2022/08/18 00:08:30;;;;;;;3.37;1.77;;;23.10;54.90;;;;;;2262068;56;20929;-71
2022/08/18 00:10:58;;;;;;;3.33;1.90;;;23.10;55.00;;;;;;2261724;56;21017;-71
2022/08/18 00:13:25;;;;;;;2.80;1.55;;;23.10;55.00;;;;;;2262303;56;20984;-71
2022/08/18 00:15:51;;;;;;;3.60;1.70;;;23.10;55.00;;;;;;2263501;56;21013;-71
2022/08/18 00:18:17;;;;;;;3.03;1.77;;;23.10;55.10;;;;;;2363914;55;21020;-71
2022/08/18 00:20:45;;;;;;;4.78;2.12;;;23.10;55.20;;;;;;2260633;56;20968;-70
2022/08/18 00:23:12;;;;;;;3.22;1.90;;;23.10;55.50;;;;;;2270844;55;20973;-71
2022/08/18 00:25:38;;;;;;;3.40;2.10;;;23.10;55.60;;;;;;2268295;55;21002;-72
2022/08/18 00:28:04;;;;;;;3.20;1.87;;;23.00;55.50;;;;;;2388852;55;21001;-71
2022/08/18 00:30:32;;;;;;;3.37;2.08;;;23.00;55.40;;;;;;2263691;56;21720;-71
2022/08/18 00:32:58;;;;;;;4.25;2.33;;;23.00;55.50;;;;;;2268449;55;21786;-71
2022/08/18 00:35:32;;;;;;;3.42;2.00;;;23.00;55.60;;;;;;2261227;56;20956;-72
2022/08/18 00:37:59;;;;;;;3.05;1.98;;;23.00;55.90;;;;;;2250047;56;21029;-71
2022/08/18 00:40:31;;;;;;;3.65;1.83;;;23.00;55.90;;;;;;2263377;56;21565;-70
2022/08/18 00:43:01;;;;;;;3.62;2.10;;;22.90;55.80;;;;;;2264296;55;21044;-71
2022/08/18 00:45:35;;;;;;;3.20;1.90;;;22.90;55.90;;;;;;2271909;55;21042;-72
2022/08/18 00:48:02;;;;;;;3.53;2.30;;;22.90;56.10;;;;;;2305072;55;20938;-72
2022/08/18 00:54:05;;;;;;;3.25;1.73;;;22.90;55.90;;;;;;2258687;56;21025;-71
2022/08/18 00:56:41;;;;;;;3.87;1.85;;;23.00;56.10;;;;;;2261776;56;21803;-72
2022/08/18 01:00:39;;;;;;;2.65;1.40;;;22.90;56.00;;;;;;2310203;55;21485;-71
2022/08/18 01:03:10;;;;;;;2.78;1.45;;;22.90;55.80;;;;;;2261873;56;20937;-72
2022/08/18 01:05:57;;;;;;;2.53;1.50;;;22.90;55.80;;;;;;2244373;56;20953;-71
2022/08/18 01:08:25;;;;;;;;;;;22.90;56.30;;;;;;2265995;56;20944;-71
2022/08/18 01:10:52;;;;;;;2.30;1.40;;;22.90;56.10;;;;;;2265401;56;20077;-70
2022/08/18 01:13:18;;;;;;;2.95;1.60;;;22.90;55.70;;;;;;2263735;56;21054;-73
2022/08/18 01:15:45;;;;;;;3.00;1.65;;;22.90;55.90;;;;;;2261081;56;20964;-71
2022/08/18 01:24:06;;;;;;;3.10;1.87;;;22.90;56.50;;;;;;2261300;56;21021;-72
2022/08/18 01:26:34;;;;;;;2.90;1.80;;;22.80;56.30;;;;;;2261457;56;21000;-72
2022/08/18 01:29:13;;;;;;;2.90;1.60;;;22.80;56.40;;;;;;2264613;56;21001;-72
2022/08/18 01:31:42;;;;;;;2.92;1.75;;;22.80;56.80;;;;;;2268311;56;21485;-72
2022/08/18 01:34:10;;;;;;;3.40;1.70;;;22.80;56.40;;;;;;2264112;56;20985;-71
2022/08/18 01:36:39;;;;;;;2.58;1.42;;;22.80;56.40;;;;;;2271860;55;21028;-72
2022/08/18 01:39:07;;;;;;;2.67;1.60;;;22.80;56.50;;;;;;2491322;55;20976;-72
2022/08/18 01:41:33;;;;;;;3.17;2.03;;;22.80;56.40;;;;;;2269403;55;21494;-71
2022/08/18 01:44:01;;;;;;;2.85;1.60;;;22.80;56.50;;;;;;2262151;56;20976;-71
2022/08/18 01:46:28;;;;;;;2.92;1.83;;;22.80;56.50;;;;;;2262149;56;20941;-71
2022/08/18 01:48:54;;;;;;;2.67;1.52;;;22.80;56.60;;;;;;2262244;56;20984;-71
2022/08/18 01:51:21;;;;;;;3.40;1.73;;;22.80;56.70;;;;;;2394915;55;21004;-72
2022/08/18 01:53:50;;;;;;;2.85;1.85;;;22.80;56.70;;;;;;2262662;56;20948;-71
2022/08/18 01:56:16;;;;;;;3.45;1.90;;;22.80;56.80;;;;;;2272813;56;20968;-72
2022/08/18 01:58:43;;;;;;;3.60;1.90;;;22.80;57.00;;;;;;2277561;55;20977;-71
2022/08/18 02:01:11;;;;;;;2.85;1.90;;;22.80;57.00;;;;;;2264608;56;21088;-71
2022/08/18 02:03:39;;;;;;;5.20;1.90;;;22.80;57.00;;;;;;2261155;56;21008;-71
2022/08/18 02:06:08;;;;;;;2.90;1.55;;;22.80;56.90;;;;;;2262423;56;21869;-71
2022/08/18 02:08:37;;;;;;;2.83;1.67;;;22.80;56.90;;;;;;2265786;56;20945;-71
2022/08/18 02:11:05;;;;;;;3.25;1.90;;;22.80;56.90;;;;;;2281049;55;21020;-71
2022/08/18 02:13:33;;;;;;;2.95;1.70;;;22.80;57.00;;;;;;2394711;55;20952;-71
2022/08/18 02:15:59;;;;;;;3.40;1.70;;;22.80;56.90;;;;;;2264821;56;21049;-72
2022/08/18 02:18:30;;;;;;;3.20;1.73;;;22.80;56.90;;;;;;2266736;55;21436;-71
2022/08/18 02:20:57;;;;;;;2.50;1.40;;;22.80;56.90;;;;;;2261838;56;20996;-73
2022/08/18 02:23:23;;;;;;;2.60;1.60;;;22.80;56.80;;;;;;2264399;56;21428;-72
2022/08/18 02:25:53;;;;;;;3.03;1.37;;;22.80;56.80;;;;;;2265788;56;21020;-71
2022/08/18 02:28:22;;;;;;;4.03;1.58;;;22.80;57.00;;;;;;2358807;55;20944;-73
2022/08/18 02:30:54;;;;;;;3.45;2.03;;;22.80;57.00;;;;;;2266389;56;20969;-71
2022/08/18 02:33:20;;;;;;;3.30;1.90;;;22.80;57.10;;;;;;2262062;56;20957;-72
2022/08/18 02:35:53;;;;;;;3.10;1.77;;;22.80;57.00;;;;;;2262866;56;20945;-72
2022/08/18 02:38:19;;;;;;;3.37;1.87;;;22.80;57.40;;;;;;2262725;56;20944;-71
2022/08/18 02:40:46;;;;;;;2.85;1.62;;;22.80;57.10;;;;;;2455545;55;20973;-72
2022/08/18 02:43:12;;;;;;;3.87;2.35;;;22.80;57.20;;;;;;2264169;56;21037;-72
2022/08/18 02:45:38;;;;;;;3.90;1.80;;;22.80;57.30;;;;;;2290620;55;21010;-71
2022/08/18 02:48:06;;;;;;;3.33;2.00;;;22.80;57.40;;;;;;2260677;56;20985;-71
2022/08/18 02:50:32;;;;;;;2.85;1.67;;;22.80;57.40;;;;;;2272375;55;21417;-72
2022/08/18 02:53:01;;;;;;;2.55;1.62;;;22.80;57.50;;;;;;2260771;56;20988;-72
2022/08/18 02:55:28;;;;;;;3.00;1.90;;;22.80;57.60;;;;;;2261815;56;20960;-71
2022/08/18 02:57:54;;;;;;;2.70;1.60;;;22.70;57.50;;;;;;2262090;56;21096;-72
2022/08/18 03:00:20;;;;;;;2.40;1.23;;;22.70;57.50;;;;;;2264137;56;21527;-71
2022/08/18 03:02:47;;;;;;;2.65;1.55;;;22.80;57.60;;;;;;2260842;56;21008;-71
2022/08/18 03:05:14;;;;;;;2.92;1.37;;;22.80;57.60;;;;;;2264592;56;21034;-71
2022/08/18 03:07:42;;;;;;;3.42;1.55;;;22.70;57.50;;;;;;2261455;56;20992;-72
2022/08/18 03:10:08;;;;;;;2.75;1.50;;;22.80;57.60;;;;;;2265054;55;21281;-73
2022/08/18 03:12:36;;;;;;;2.75;1.62;;;22.80;57.50;;;;;;2355567;55;21623;-72
2022/08/18 03:15:02;;;;;;;3.08;1.70;;;22.80;57.50;;;;;;2260359;56;20981;-72
2022/08/18 03:17:30;;;;;;;3.00;1.60;;;22.80;57.50;;;;;;2262153;56;21068;-71
2022/08/18 03:19:56;;;;;;;3.12;1.67;;;22.70;57.50;;;;;;2272232;55;21006;-71
2022/08/18 03:22:24;;;;;;;2.92;1.60;;;22.80;57.80;;;;;;2363994;55;21815;-71
2022/08/18 03:24:50;;;;;;;3.75;1.67;;;22.70;57.80;;;;;;2273318;55;21821;-70
2022/08/18 03:27:16;;;;;;;2.45;1.40;;;22.80;57.80;;;;;;2261186;56;21043;-71
2022/08/18 03:29:43;;;;;;;3.05;1.50;;;22.70;57.70;;;;;;2278452;55;21474;-71
2022/08/18 03:32:09;;;;;;;2.60;1.50;;;22.80;57.70;;;;;;2263300;55;21033;-72
2022/08/18 03:34:35;;;;;;;3.58;1.50;;;22.70;57.60;;;;;;2266979;56;21097;-70
2022/08/18 03:37:02;;;;;;;2.90;1.73;;;22.80;57.80;;;;;;2312411;55;21009;-71
2022/08/18 03:39:28;;;;;;;2.67;1.40;;;22.70;57.80;;;;;;2294522;55;21040;-71
2022/08/18 03:41:55;;;;;;;3.10;1.50;;;22.80;58.00;;;;;;2263182;56;20988;-72
2022/08/18 03:44:21;;;;;;;3.12;1.70;;;22.70;57.80;;;;;;2266521;56;21020;-71
2022/08/18 03:46:49;;;;;;;3.00;1.62;;;22.70;57.90;;;;;;2291182;55;21442;-73
2022/08/18 03:49:15;;;;;;;2.90;1.65;;;22.70;58.10;;;;;;2484713;55;21832;-70
2022/08/18 03:51:43;;;;;;;2.95;1.80;;;22.80;58.30;;;;;;2262807;56;21009;-71
2022/08/18 03:54:09;;;;;;;3.00;1.90;;;22.70;58.20;;;;;;2268281;56;20952;-71
2022/08/18 03:56:37;;;;;;;2.85;1.40;;;22.70;58.20;;;;;;2372828;55;21003;-72
2022/08/18 03:59:06;;;;;;;2.70;1.60;;;22.80;58.30;;;;;;2262394;56;21036;-72
2022/08/18 04:01:39;;;;;;;3.08;1.62;;;22.70;58.20;;;;;;2261426;56;20997;-73
2022/08/18 04:04:08;;;;;;;2.80;1.55;;;22.80;58.30;;;;;;2289420;55;21017;-70
2022/08/18 04:06:41;;;;;;;3.00;1.77;;;22.80;58.40;;;;;;2345583;55;21909;-71
2022/08/18 04:09:08;;;;;;;;;;;22.80;58.40;;;;;;2263891;56;21040;-70
2022/08/18 04:15:03;;;;;;;3.15;1.70;;;22.80;58.80;;;;;;2261336;56;21067;-72
2022/08/18 04:17:29;;;;;;;3.92;1.77;;;22.80;58.30;;;;;;2264453;56;21068;-72
2022/08/18 04:19:56;;;;;;;3.00;1.87;;;22.80;58.40;;;;;;2267625;55;21501;-72
2022/08/18 04:22:22;;;;;;;5.07;2.05;;;22.80;58.60;;;;;;2271292;56;21014;-72
2022/08/18 04:24:49;;;;;;;3.05;1.90;;;22.80;58.60;;;;;;2241549;56;21036;-71
2022/08/18 04:27:16;;;;;;;3.90;2.10;;;22.80;58.60;;;;;;2344715;55;20961;-72
2022/08/18 04:29:42;;;;;;;2.92;1.58;;;22.80;58.70;;;;;;2268192;55;21008;-71
2022/08/18 04:32:09;;;;;;;2.70;1.65;;;22.80;58.60;;;;;;2260564;56;20945;-72
2022/08/18 04:34:35;;;;;;;3.72;2.12;;;22.70;58.60;;;;;;2285130;55;22094;-72
2022/08/18 04:37:01;;;;;;;8.23;2.12;;;22.80;58.80;;;;;;2263377;56;20986;-71
2022/08/18 04:39:32;;;;;;;3.30;1.90;;;22.80;58.90;;;;;;2265220;56;20937;-71
2022/08/18 04:41:58;;;;;;;5.25;2.05;;;22.80;59.00;;;;;;2264766;55;21486;-72
2022/08/18 04:44:36;;;;;;;4.20;2.15;;;22.80;59.00;;;;;;2262161;56;21466;-71
2022/08/18 04:47:03;;;;;;;3.55;2.10;;;22.80;59.30;;;;;;2272740;55;21553;-70
2022/08/18 04:49:30;;;;;;;3.03;1.90;;;22.80;58.90;;;;;;2264443;56;20961;-70
2022/08/18 04:54:41;;;;;;;4.35;2.37;;;22.80;59.10;;;;;;2265054;55;21018;-72
2022/08/18 04:57:17;;;;;;;3.55;2.12;;;22.80;59.10;;;;;;2260733;56;21103;-71
2022/08/18 04:59:44;;;;;;;4.05;2.15;;;22.80;59.20;;;;;;2299081;55;20937;-71
2022/08/18 05:02:11;;;;;;;2.72;1.60;;;22.80;59.20;;;;;;2382880;55;21798;-73
2022/08/18 05:04:41;;;;;;;3.17;1.62;;;22.80;59.20;;;;;;2264063;56;21057;-71
2022/08/18 05:07:11;;;;;;;2.78;1.85;;;22.90;59.20;;;;;;2262036;56;21445;-72
2022/08/18 05:09:43;;;;;;;3.00;1.75;;;22.90;59.10;;;;;;2263584;56;21035;-71
2022/08/18 05:12:12;;;;;;;2.97;1.55;;;22.90;59.00;;;;;;2262181;56;20972;-71
2022/08/18 05:14:39;;;;;;;2.53;1.33;;;22.80;58.90;;;;;;2262499;56;21013;-71
2022/08/18 05:17:06;;;;;;;2.65;1.40;;;22.80;59.00;;;;;;2289764;55;21055;-71
2022/08/18 05:19:34;;;;;;;2.33;1.33;;;22.90;59.00;;;;;;2343804;55;21537;-71
2022/08/18 05:22:00;;;;;;;2.78;1.55;;;22.80;59.00;;;;;;2261325;56;21021;-71
2022/08/18 05:24:28;;;;;;;2.53;1.42;;;22.80;58.90;;;;;;2301338;55;21009;-72
2022/08/18 05:26:56;;;;;;;2.85;1.37;;;22.90;59.00;;;;;;2266257;56;21037;-70
2022/08/18 05:29:35;;;;;;;2.60;1.62;;;22.90;59.00;;;;;;2263875;56;21101;-71
2022/08/18 05:32:02;;;;;;;3.37;1.42;;;22.90;59.30;;;;;;2266029;56;20944;-71
2022/08/18 05:34:29;;;;;;;2.72;1.70;;;22.80;59.00;;;;;;2262642;56;20996;-71
2022/08/18 05:37:07;;;;;;;2.80;1.67;;;22.80;59.00;;;;;;2332429;55;20992;-71
2022/08/18 05:40:02;;;;;;;2.80;1.58;;;22.80;59.10;;;;;;2262068;56;21004;-71
2022/08/18 05:42:52;;;;;;;2.85;1.58;;;22.90;59.40;;;;;;2261599;56;21584;-71
2022/08/18 05:45:19;;;;;;;3.10;1.35;;;22.90;59.20;;;;;;2261676;56;21016;-71
2022/08/18 05:47:45;;;;;;;2.90;1.60;;;22.90;59.00;;;;;;2279045;55;21712;-73
2022/08/18 05:50:16;;;;;;;3.33;1.75;;;22.90;59.10;;;;;;2259736;56;21001;-71
2022/08/18 05:52:55;;;;;;;2.58;1.50;;;22.80;59.10;;;;;;2260907;56;20992;-71
2022/08/18 05:58:54;;;;;;;2.80;1.55;;;22.80;59.40;;;;;;2261566;56;21076;-72
2022/08/18 06:01:26;;;;;;;2.80;1.40;;;22.90;59.50;;;;;;2262502;56;21040;-72
2022/08/18 06:04:01;;;;;;;3.08;1.40;;;22.90;59.30;;;;;;2261144;56;21044;-73
2022/08/18 06:06:29;;;;;;;3.17;1.40;;;22.90;59.30;;;;;;2244284;56;20981;-71
2022/08/18 06:09:07;;;;;;;2.87;1.50;;;22.80;59.10;;;;;;2261939;56;21767;-71
2022/08/18 06:11:34;;;;;;;4.32;1.62;;;22.90;59.40;;;;;;2270532;56;21041;-71
2022/08/18 06:14:00;;;;;;;2.87;1.73;;;22.90;59.40;;;;;;2263951;56;20963;-71
2022/08/18 06:19:43;;;;;;;2.83;1.60;;;22.90;59.50;;;;;;2269055;55;20961;-73
2022/08/18 06:23:40;;;;;;;2.50;1.30;;;22.80;59.80;;;;;;2267261;56;20998;-70
2022/08/18 06:26:40;;;;;;;2.87;1.55;;;22.90;59.90;;;;;;2264975;55;21639;-70
2022/08/18 06:29:37;;;;;;;3.05;1.70;;;22.90;60.00;;;;;;2262501;56;20984;-70
2022/08/18 06:36:54;;;;;;;3.62;1.77;;;22.90;60.10;;;;;;2261960;55;20989;-71
2022/08/18 06:40:08;;;;;;;3.83;1.55;;;22.90;59.90;;;;;;2261798;56;21024;-70
2022/08/18 06:42:34;;;;;;;2.90;1.77;;;22.90;59.60;;;;;;2310359;55;20974;-70
2022/08/18 06:45:10;;;;;;;4.85;2.17;;;22.90;59.60;;;;;;2261807;56;20976;-71
2022/08/18 06:48:25;;;;;;;6.40;2.50;;;22.90;60.00;;;;;;2263041;56;20961;-70
2022/08/18 06:50:57;;;;;;;2.90;1.80;;;22.90;60.60;;;;;;2262196;56;21021;-71
2022/08/18 06:53:47;;;;;;;3.40;2.05;;;22.90;60.00;;;;;;2262710;56;21383;-71
2022/08/18 06:58:18;;;;;;;3.42;2.10;;;22.90;60.30;;;;;;2262284;56;21021;-69
2022/08/18 07:00:56;;;;;;;4.35;2.42;;;22.90;60.50;;;;;;2262021;56;21398;-70
2022/08/18 07:05:18;;;;;;;3.53;2.12;;;22.90;60.30;;;;;;2261645;56;20984;-71
2022/08/18 07:07:44;;;;;;;5.45;1.90;;;22.90;60.00;;;;;;2264753;56;20945;-71
2022/08/18 07:10:34;;;;;;;3.80;2.40;;;22.90;59.80;;;;;;2262612;56;21084;-69
2022/08/18 07:13:13;;;;;;;5.28;2.47;;;22.90;60.50;;;;;;2261670;56;21714;-72
2022/08/18 07:15:39;;;;;;;3.97;2.50;;;22.80;60.30;;;;;;2261911;56;20997;-71
2022/08/18 07:18:07;;;;;;;5.35;3.03;;;22.80;60.10;;;;;;2261481;56;20996;-70
2022/08/18 07:20:46;;;;;;;4.37;2.92;;;22.80;60.20;;;;;;2263437;56;20960;-70
2022/08/18 07:23:30;;;;;;;5.22;3.08;;;22.90;60.80;;;;;;2245872;56;21061;-70
2022/08/18 07:26:03;;;;;;;11.25;3.87;;;22.90;60.80;;;;;;2386507;54;21002;-71
2022/08/18 07:28:52;;;;;;;4.60;3.10;;;22.90;60.60;;;;;;2261874;56;21093;-70
2022/08/18 07:34:52;;;;;;;5.18;3.47;;;22.90;60.80;;;;;;2267334;55;20966;-71
2022/08/18 07:37:47;;;;;;;4.95;2.50;;;22.90;60.70;;;;;;2264438;56;21818;-70
2022/08/18 07:40:43;;;;;;;4.78;3.10;;;22.90;60.70;;;;;;2453818;55;21004;-70
2022/08/18 07:43:35;;;;;;;5.22;3.47;;;23.00;61.20;;;;;;2261345;56;21028;-69
2022/08/18 07:47:38;;;;;;;4.50;2.78;;;23.00;61.40;;;;;;2426188;55;20984;-70
2022/08/18 07:50:05;;;;;;;4.03;2.57;;;23.00;61.00;;;;;;2262418;56;20972;-70
2022/08/18 07:52:59;;;;;;;5.37;3.10;;;23.00;60.60;;;;;;2261890;56;21045;-71
2022/08/18 07:55:34;;;;;;;5.33;3.23;;;23.00;60.90;;;;;;2262305;56;21268;-71
2022/08/18 08:00:11;;;;;;;4.40;3.15;;;23.00;60.80;;;;;;2265647;56;20980;-72
2022/08/18 08:05:41;;;;;;;3.78;2.03;;;23.10;61.20;;;;;;2265836;56;21048;-70
2022/08/18 08:25:02;;;;;;;3.20;1.75;;;23.10;60.90;;;;;;2189454;58;20978;-72
2022/08/18 08:30:51;;;;;;;3.03;1.75;;;23.20;59.90;;;;;;2517897;52;23019;-74
2022/08/18 08:33:36;;;;;;;4.25;1.90;;;23.20;60.00;;;;;;2462330;53;21775;-70
2022/08/18 08:36:16;;;;;;;3.10;2.00;;;23.30;60.50;;;;;;2329806;53;20917;-70
2022/08/18 08:38:47;;;;;;;2.92;1.55;;;23.30;60.50;;;;;;2315996;53;21508;-70
2022/08/18 08:42:19;;;;;;;4.37;2.22;;;23.30;60.40;;;;;;2294089;53;21456;-71
2022/08/18 08:44:52;;;;;;;3.17;1.90;;;23.30;60.80;;;;;;2382501;53;20947;-69
2022/08/18 08:47:33;;;;;;;3.12;1.90;;;23.40;60.50;;;;;;2313945;54;21719;-70
2022/08/18 08:50:21;;;;;;;3.22;1.67;;;23.40;60.30;;;;;;2308517;54;20971;-70
2022/08/18 08:52:57;;;;;;;2.87;1.52;;;23.40;60.50;;;;;;2305463;54;20983;-71
2022/08/18 08:55:30;;;;;;;3.50;2.10;;;23.50;60.60;;;;;;2297006;54;20959;-70
2022/08/18 08:58:10;;;;;;;3.42;2.00;;;23.50;60.50;;;;;;2309774;54;20919;-69
2022/08/18 09:00:37;;;;;;;2.97;1.87;;;23.50;60.40;;;;;;2303217;54;20984;-70
2022/08/18 09:03:23;;;;;;;3.70;1.98;;;23.60;60.70;;;;;;2333287;53;21055;-70
2022/08/18 09:07:05;;;;;;;3.03;2.15;;;23.60;60.60;;;;;;2339593;53;20968;-70
2022/08/18 09:15:40;;;;;;;3.87;1.90;;;23.60;60.70;;;;;;2354382;54;21798;-72
2022/08/18 09:18:43;;;;;;;3.40;2.00;;;23.80;60.40;;;;;;2470779;53;20983;-70
2022/08/18 09:21:34;;;;;;;3.28;1.92;;;23.80;60.20;;;;;;2338296;54;20941;-75
2022/08/18 09:24:24;;;;;;;3.40;2.20;;;23.80;60.30;;;;;;2341693;54;20962;-74
2022/08/18 09:28:55;;;;;;;3.92;2.30;;;23.80;60.50;;;;;;2339125;54;20928;-70
2022/08/18 09:31:22;;;;;;;3.78;2.50;;;23.80;60.50;;;;;;2426898;52;20929;-69
2022/08/18 09:34:37;;;;;;;3.60;2.33;;;23.80;60.10;;;;;;2343265;54;20924;-69
2022/08/18 09:44:10;;;;;;;4.40;2.50;;;23.80;60.20;;;;;;2316107;54;21741;-71
2022/08/18 09:47:10;;;;;;;4.43;2.67;;;23.80;60.70;;;;;;2339232;54;20982;-69
2022/08/18 09:49:42;;;;;;;4.07;2.60;;;23.80;60.90;;;;;;2342693;53;20901;-68
2022/08/18 09:54:07;;;;;;;3.87;2.58;;;23.80;60.70;;;;;;2392668;52;21001;-69
2022/08/18 10:00:17;;;;;;;3.87;2.25;;;23.80;61.00;;;;;;2354022;53;21004;-68
2022/08/18 10:03:04;;;;;;;3.67;1.90;;;23.90;60.80;;;;;;2338793;53;20985;-69
2022/08/18 10:05:32;;;;;;;3.53;2.03;;;23.90;60.80;;;;;;2563815;52;21515;-69
2022/08/18 10:08:37;;;;;;;2.90;1.95;;;23.90;60.80;;;;;;2454260;53;21076;-68
2022/08/18 10:11:41;;;;;;;3.65;2.20;;;23.90;61.30;;;;;;2338375;53;20977;-69
2022/08/18 10:15:47;;;;;;;3.40;2.25;;;24.00;61.20;;;;;;2338253;53;21031;-69
2022/08/18 10:19:09;;;;;;;3.53;2.15;;;24.10;61.00;;;;;;2337466;53;21000;-69
2022/08/18 10:28:57;;;;;;;6.78;2.10;;;24.10;60.70;;;;;;2337979;53;21749;-69
2022/08/18 10:31:24;;;;;;;2.70;1.30;;;24.40;60.50;;;;;;2340037;54;21919;-69
2022/08/18 10:34:12;;;;;;;3.65;2.30;;;24.40;60.30;;;;;;2334616;54;21064;-69
2022/08/18 10:36:54;;;;;;;4.82;2.17;;;24.40;60.50;;;;;;2338245;54;20964;-71
2022/08/18 10:46:25;;;;;;;3.03;2.00;;;24.50;60.60;;;;;;2314507;55;20940;-70
2022/08/18 10:49:46;;;;;;;2.67;1.48;;;24.70;60.00;;;;;;2325768;54;20924;-70
2022/08/18 10:52:22;;;;;;;3.00;1.83;;;24.70;60.00;;;;;;2338793;54;21485;-67
2022/08/18 10:55:13;;;;;;;3.85;2.40;;;24.80;60.00;;;;;;2335021;54;21004;-69
2022/08/18 10:57:59;;;;;;;3.00;1.92;;;24.80;60.30;;;;;;2341077;54;21007;-68
2022/08/18 11:00:47;;;;;;;3.40;2.20;;;24.80;60.20;;;;;;2366381;54;20959;-69
2022/08/18 11:03:35;;;;;;;3.05;1.92;;;24.90;60.30;;;;;;2350639;53;21443;-68
2022/08/18 11:06:13;;;;;;;3.37;2.22;;;25.00;60.40;;;;;;2358398;53;20971;-68
2022/08/18 11:08:45;;;;;;;3.47;2.53;;;25.00;60.10;;;;;;2366502;53;21547;-70
2022/08/18 11:11:12;;;;;;;4.18;2.80;;;25.00;60.10;;;;;;2366695;53;20999;-69
2022/08/18 11:15:20;;;;;;;3.75;2.75;;;25.00;60.00;;;;;;2348049;53;21408;-68
2022/08/18 11:18:53;;;;;;;4.35;2.70;;;25.10;59.90;;;;;;2366315;54;21037;-67
2022/08/18 11:24:51;;;;;;;7.65;2.80;;;25.20;59.90;;;;;;2353354;53;20933;-70
2022/08/18 11:27:25;;;;;;;3.72;2.42;;;25.20;59.60;;;;;;2365605;54;21035;-67
2022/08/18 11:29:59;;;;;;;3.72;2.58;;;25.20;59.60;;;;;;2366118;53;20958;-69
2022/08/18 11:32:33;;;;;;;4.93;3.03;;;25.20;59.50;;;;;;2366498;54;20987;-70
2022/08/18 11:35:03;;;;;;;5.03;2.97;;;25.30;59.50;;;;;;2346480;54;20947;-70
2022/08/18 11:38:04;;;;;;;4.95;3.03;;;25.30;59.50;;;;;;2315660;54;20996;-69
2022/08/18 11:40:40;;;;;;;3.75;2.58;;;25.30;59.60;;;;;;2300238;55;21364;-68
2022/08/18 11:43:36;;;;;;;4.75;2.58;;;25.30;59.40;;;;;;2364700;54;21093;-68
2022/08/18 11:47:17;;;;;;;4.85;3.37;;;25.30;59.90;;;;;;2370428;52;20930;-68
2022/08/18 11:50:08;;;;;;;4.12;2.70;;;25.30;59.30;;;;;;2449423;52;20970;-70
2022/08/18 11:52:49;;;;;;;4.30;3.08;;;25.40;59.30;;;;;;2530346;52;20989;-68
2022/08/18 11:55:29;;;;;;;5.30;3.78;;;25.40;59.20;;;;;;2344663;54;21024;-68
2022/08/18 11:57:56;;;;;;;5.10;3.22;;;25.40;59.10;;;;;;2362517;53;21021;-67
2022/08/18 12:00:36;;;;;;;4.80;2.87;;;25.30;59.00;;;;;;2351538;54;20932;-70
2022/08/18 12:03:25;;;;;;;4.57;3.67;;;25.40;59.30;;;;;;2340480;54;20938;-68
2022/08/18 12:06:10;;;;;;;5.28;3.83;;;25.30;59.10;;;;;;2361069;53;21073;-71
2022/08/18 12:08:53;;;;;;;4.82;3.45;;;25.40;59.10;;;;;;2356742;54;21013;-70
2022/08/18 12:11:26;;;;;;;11.02;6.57;;;25.40;59.10;;;;;;2356225;54;20917;-70
2022/08/18 12:14:08;;;;;;;13.05;7.95;;;25.40;59.10;;;;;;2346906;54;20906;-68
2022/08/18 12:16:41;;;;;;;10.35;6.80;;;25.40;59.20;;;;;;2483292;53;20937;-68
2022/08/18 12:19:10;;;;;;;7.45;4.87;;;25.40;59.20;;;;;;2354097;54;20966;-72
2022/08/18 12:21:40;;;;;;;6.60;4.40;;;25.30;59.00;;;;;;2366459;54;20966;-70
2022/08/18 12:24:10;;;;;;;5.75;3.95;;;25.30;59.00;;;;;;2368061;54;20981;-69
2022/08/18 12:26:37;;;;;;;5.75;4.12;;;25.30;59.10;;;;;;2361285;54;21033;-69
2022/08/18 12:29:03;;;;;;;5.32;3.75;;;25.40;59.30;;;;;;2435421;52;21525;-68
2022/08/18 12:31:29;;;;;;;4.80;3.28;;;25.40;59.30;;;;;;2342105;54;20919;-69
2022/08/18 12:33:55;;;;;;;5.37;3.70;;;25.40;59.50;;;;;;2365742;54;21756;-70
2022/08/18 12:36:22;;;;;;;4.55;3.25;;;25.40;59.40;;;;;;2514862;52;20938;-72
2022/08/18 12:38:48;;;;;;;5.05;3.58;;;25.40;59.40;;;;;;2365980;54;20936;-70
2022/08/18 12:41:15;;;;;;;5.85;4.60;;;25.50;59.30;;;;;;2576153;52;20919;-70
2022/08/18 12:43:46;;;;;;;6.72;4.10;;;25.50;59.10;;;;;;2365543;54;20934;-72
2022/08/18 12:46:12;;;;;;;5.00;3.97;;;25.60;59.20;;;;;;2399990;52;21051;-70
2022/08/18 12:48:39;;;;;;;5.00;3.90;;;25.60;59.10;;;;;;2356853;54;21021;-71
2022/08/18 12:51:06;;;;;;;5.32;4.32;;;25.60;59.10;;;;;;2365659;54;20925;-68
2022/08/18 12:53:32;;;;;;;5.93;3.97;;;25.70;59.20;;;;;;2365975;54;20922;-70
2022/08/18 12:55:59;;;;;;;6.57;4.78;;;25.70;59.20;;;;;;2366100;54;20977;-70
2022/08/18 12:58:26;;;;;;;4.57;3.87;;;25.70;59.40;;;;;;2365780;54;21738;-70
2022/08/18 13:00:54;;;;;;;5.28;4.12;;;25.70;59.50;;;;;;2366539;54;20942;-70
2022/08/18 13:03:25;;;;;;;5.07;3.62;;;25.80;59.60;;;;;;2365529;54;20945;-69
2022/08/18 13:05:52;;;;;;;5.25;4.00;;;25.80;59.70;;;;;;2366005;54;21925;-70
2022/08/18 13:08:20;;;;;;;5.40;4.25;;;25.90;59.60;;;;;;2338314;54;21008;-71
2022/08/18 13:10:46;;;;;;;5.62;4.68;;;25.90;59.40;;;;;;2337749;54;21020;-73
2022/08/18 13:13:16;;;;;;;5.43;4.05;;;26.00;59.20;;;;;;2343583;54;20870;-70
2022/08/18 13:15:43;;;;;;;5.85;4.35;;;26.10;59.10;;;;;;2337131;54;22083;-70
2022/08/18 13:18:13;;;;;;;5.78;4.70;;;26.10;59.10;;;;;;2319515;54;20952;-70
2022/08/18 13:20:40;;;;;;;6.57;5.22;;;26.10;59.30;;;;;;2323875;54;21701;-71
2022/08/18 13:23:06;;;;;;;6.82;5.22;;;26.20;59.40;;;;;;2313445;54;20947;-72
2022/08/18 13:25:34;;;;;;;5.30;4.20;;;26.20;59.40;;;;;;2321155;53;20956;-71
2022/08/18 13:28:01;;;;;;;6.20;5.20;;;26.30;59.50;;;;;;2321698;53;21424;-72
2022/08/18 13:30:27;;;;;;;6.50;4.93;;;26.30;59.60;;;;;;2431573;53;21000;-70
2022/08/18 13:32:54;;;;;;;6.85;4.85;;;26.30;59.50;;;;;;2408468;53;21858;-70
2022/08/18 13:35:20;;;;;;;6.90;5.68;;;26.40;59.50;;;;;;2365595;54;20962;-69
2022/08/18 13:37:47;;;;;;;6.90;5.32;;;26.50;59.30;;;;;;2365768;54;21053;-71
2022/08/18 13:40:13;;;;;;;6.57;5.62;;;26.50;59.10;;;;;;2365547;54;21383;-71
2022/08/18 13:42:47;;;;;;;7.12;5.45;;;26.60;59.00;;;;;;2365624;54;20969;-71
2022/08/18 13:45:17;;;;;;;6.10;5.32;;;26.60;58.80;;;;;;2365219;54;21040;-69
2022/08/18 13:47:44;;;;;;;7.50;5.22;;;26.70;58.80;;;;;;2353311;54;21001;-72
2022/08/18 13:50:11;;;;;;;6.93;5.57;;;26.70;58.70;;;;;;2354992;54;20965;-70
2022/08/18 13:52:39;;;;;;;7.22;5.95;;;26.70;58.60;;;;;;2365320;54;20954;-70
2022/08/18 13:55:16;;;;;;;6.05;5.25;;;26.80;58.40;;;;;;2363502;54;21034;-70
2022/08/18 13:57:48;;;;;;;8.48;5.62;;;26.80;58.30;;;;;;2365204;54;20969;-71
2022/08/18 14:00:20;;;;;;;7.35;5.03;;;26.80;58.30;;;;;;2375543;52;21020;-72
2022/08/18 14:02:51;;;;;;;6.07;4.97;;;26.80;58.20;;;;;;2342345;54;20965;-70
2022/08/18 14:05:17;;;;;;;6.82;5.37;;;26.90;58.30;;;;;;2365431;54;20929;-71
2022/08/18 14:07:43;;;;;;;6.37;5.47;;;26.90;58.40;;;;;;2341559;54;20942;-73
2022/08/18 14:10:10;;;;;;;6.68;5.25;;;27.00;58.40;;;;;;2433282;52;21376;-70
2022/08/18 14:12:36;;;;;;;7.55;6.75;;;27.00;58.30;;;;;;2365112;54;20969;-70
2022/08/18 14:15:06;;;;;;;5.57;4.68;;;27.00;58.30;;;;;;2568113;52;20950;-71
2022/08/18 14:17:33;;;;;;;6.97;5.15;;;27.10;58.40;;;;;;2342489;54;20950;-69
2022/08/18 14:28:17;;;;;;;7.75;6.18;;;27.20;58.10;;;;;;2340766;54;20964;-71
2022/08/18 14:30:45;;;;;;;6.60;5.15;;;27.30;58.20;;;;;;2352707;53;21984;-72
2022/08/18 14:33:13;;;;;;;5.62;4.70;;;27.30;58.10;;;;;;2365416;54;20925;-71
2022/08/18 14:35:40;;;;;;;5.95;4.70;;;27.30;58.20;;;;;;2328293;54;20967;-70
2022/08/18 14:38:07;;;;;;;5.65;5.05;;;27.30;58.20;;;;;;2358299;54;20957;-72
2022/08/18 14:40:35;;;;;;;5.60;4.82;;;27.40;58.20;;;;;;2365614;54;20898;-70
2022/08/18 14:43:01;;;;;;;5.93;4.85;;;27.40;58.10;;;;;;2366920;54;21318;-70
2022/08/18 14:45:27;;;;;;;5.00;4.43;;;27.40;58.00;;;;;;2366008;54;21005;-71
2022/08/18 14:47:55;;;;;;;5.62;4.80;;;27.40;57.90;;;;;;2362273;54;20996;-70
2022/08/18 14:50:22;;;;;;;5.35;4.47;;;27.50;57.90;;;;;;2364814;54;21466;-70
2022/08/18 14:52:49;;;;;;;4.93;4.18;;;27.50;57.80;;;;;;2365894;54;20997;-70
2022/08/18 14:55:16;;;;;;;6.60;5.43;;;27.50;57.70;;;;;;2536506;52;20974;-69
2022/08/18 14:57:42;;;;;;;5.53;4.18;;;27.50;57.50;;;;;;2366156;54;20970;-70
2022/08/18 15:00:16;;;;;;;6.22;4.65;;;27.50;57.50;;;;;;2366872;54;21731;-71
2022/08/18 15:02:43;;;;;;;5.82;4.57;;;27.50;57.50;;;;;;2491427;52;20989;-71
2022/08/18 15:05:12;;;;;;;6.53;5.40;;;27.50;57.50;;;;;;2443212;53;21041;-70
2022/08/18 15:07:39;;;;;;;6.80;6.03;;;27.50;57.50;;;;;;2345224;54;21076;-71
2022/08/18 15:10:06;;;;;;;7.75;6.95;;;27.60;57.50;;;;;;2481676;52;21440;-72
2022/08/18 15:12:32;;;;;;;7.32;5.47;;;27.60;57.50;;;;;;2366125;54;21403;-71